Terminal Aerodrome Forecast
Issued by NWS Cleveland, OH

Home | Current Version | Previous Version | Graphics & Text | Print | Product List | Glossary On
Versions: 1 2 3 4 5 6 7 8 9 10 11 12 13 14 15 16 17
000
FTUS41 KCLE 050557 AAA
TAFMFD
TAF AMD
KMFD 050557Z 0506/0606 VRB02KT 4SM BR BKN250
     FM051400 09003KT 6SM HZ BKN250
     FM051700 09005KT P6SM BKN250=

USA.gov is the U.S. government's official web portal to all federal, state and local government web resources and services.